Time;durP1;ratioP1;P1;durP2;ratioP2;P2;SDS_P1;SDS_P2;PMS_P1;PMS_P2;Temp;Humidity;BMP_temperature;BMP_pressure;BME280_temperature;BME280_humidity;BME280_pressure;Samples;Min_cycle;Max_cycle;Signal;HPM_P1;HPM_P2
2023/06/10 00:01:01;;;;;;;;;;;18.00;99.90;;;;;;5096298;28;19967;-84
2023/06/10 00:03:26;;;;;;;;;;;17.80;99.90;;;;;;5100106;28;20436;-85
2023/06/10 00:05:52;;;;;;;;;;;18.00;99.90;;;;;;5099903;28;20400;-84
2023/06/10 00:08:19;;;;;;;;;;;17.80;99.90;;;;;;5097575;28;19928;-84
2023/06/10 00:10:45;;;;;;;;;;;17.80;99.90;;;;;;5094773;28;19951;-84
2023/06/10 00:13:11;;;;;;;;;;;17.90;99.90;;;;;;5095809;28;20438;-84
2023/06/10 00:15:37;;;;;;;;;;;17.80;99.90;;;;;;5102421;28;19927;-83
2023/06/10 00:18:03;;;;;;;;;;;17.80;99.90;;;;;;5097280;28;19981;-84
2023/06/10 00:20:30;;;;;;;;;;;17.70;99.90;;;;;;5094402;28;19939;-84
2023/06/10 00:22:56;;;;;;;;;;;17.70;99.90;;;;;;5098921;28;19984;-84
2023/06/10 00:25:22;;;;;;;;;;;17.60;99.90;;;;;;5102037;28;19977;-85
2023/06/10 00:27:48;;;;;;;;;;;17.50;99.90;;;;;;5094165;28;19923;-84
2023/06/10 00:30:13;;;;;;;;;;;17.40;99.90;;;;;;5099441;28;19956;-84
2023/06/10 00:32:39;;;;;;;;;;;17.30;99.90;;;;;;5094068;28;19978;-84
2023/06/10 00:35:05;;;;;;;;;;;17.50;99.90;;;;;;5098440;28;19985;-83
2023/06/10 00:37:31;;;;;;;;;;;17.50;99.90;;;;;;5094503;28;19928;-83
2023/06/10 00:39:57;;;;;;;;;;;17.60;99.90;;;;;;5098083;28;19924;-83
2023/06/10 00:42:24;;;;;;;;;;;17.50;99.90;;;;;;5096964;28;19996;-84
2023/06/10 00:44:53;;;;;;;;;;;17.40;99.90;;;;;;5098141;28;19930;-83
2023/06/10 00:47:19;;;;;;;;;;;17.30;99.90;;;;;;5094882;28;20023;-83
2023/06/10 00:49:45;;;;;;;;;;;17.30;99.90;;;;;;5099793;28;20019;-83
2023/06/10 00:52:11;;;;;;;;;;;17.20;99.90;;;;;;5099410;28;19996;-84
2023/06/10 00:54:38;;;;;;;;;;;17.30;99.90;;;;;;5096537;28;20389;-85
2023/06/10 00:57:04;;;;;;;;;;;17.20;99.90;;;;;;5092467;28;19924;-84
2023/06/10 00:59:30;;;;;;;;;;;17.10;99.90;;;;;;5098745;28;20301;-83
2023/06/10 01:01:56;;;;;;;;;;;17.10;99.90;;;;;;5092091;28;19928;-84
2023/06/10 01:04:23;;;;;;;;;;;17.00;99.90;;;;;;5097080;28;20285;-84
2023/06/10 01:07:01;;;;;;;;;;;17.00;99.90;;;;;;5094614;28;19924;-83
2023/06/10 01:09:27;;;;;;;;;;;17.10;99.90;;;;;;5091242;28;20019;-84
2023/06/10 01:11:57;;;;;;;;;;;17.10;99.90;;;;;;5098685;28;20007;-83
2023/06/10 01:14:24;;;;;;;;;;;17.00;99.90;;;;;;5096589;28;20002;-82
2023/06/10 01:16:49;;;;;;;;;;;17.00;99.90;;;;;;5099397;28;19967;-83
2023/06/10 01:19:17;;;;;;;;;;;17.00;99.90;;;;;;5093087;28;19993;-84
2023/06/10 01:21:48;;;;;;;;;;;17.00;99.90;;;;;;5092916;28;19963;-83
2023/06/10 01:24:14;;;;;;;;;;;16.70;99.90;;;;;;5077614;28;20688;-84
2023/06/10 01:26:41;;;;;;;;;;;16.80;99.90;;;;;;5092871;28;19933;-83
2023/06/10 01:29:08;;;;;;;;;;;16.70;99.90;;;;;;5096743;28;20457;-83
2023/06/10 01:31:38;;;;;;;;;;;16.70;99.90;;;;;;5080745;28;19973;-83
2023/06/10 01:34:08;;;;;;;;;;;16.70;99.90;;;;;;5091255;28;19927;-83
2023/06/10 01:36:35;;;;;;;;;;;16.70;99.90;;;;;;5078351;28;19934;-84
2023/06/10 01:39:02;;;;;;;;;;;16.90;99.90;;;;;;5093553;28;20386;-83
2023/06/10 01:41:28;;;;;;;;;;;16.80;99.90;;;;;;5088296;28;20436;-82
2023/06/10 01:43:54;;;;;;;;;;;16.60;99.90;;;;;;5094523;28;20042;-82
2023/06/10 01:46:21;;;;;;;;;;;16.50;99.90;;;;;;5096655;28;20034;-83
2023/06/10 01:48:47;;;;;;;;;;;16.50;99.90;;;;;;5072978;28;19932;-83
2023/06/10 01:51:12;;;;;;;;;;;16.50;99.90;;;;;;5093484;28;20455;-84
2023/06/10 01:53:38;;;;;;;;;;;16.60;99.90;;;;;;5088684;28;20021;-84
2023/06/10 01:56:03;;;;;;;;;;;16.50;99.90;;;;;;5095672;28;19927;-83
2023/06/10 01:58:29;;;;;;;;;;;16.40;99.90;;;;;;5094043;28;19927;-83
2023/06/10 02:00:54;;;;;;;;;;;16.30;99.90;;;;;;5090915;28;19932;-83
2023/06/10 02:03:20;;;;;;;;;;;16.30;99.90;;;;;;5096694;28;20007;-83
2023/06/10 02:05:46;;;;;;;;;;;16.20;99.90;;;;;;5078182;28;20068;-82
2023/06/10 02:08:11;;;;;;;;;;;16.20;99.90;;;;;;5080452;28;20036;-82
2023/06/10 02:10:37;;;;;;;;;;;16.20;99.90;;;;;;5096804;28;19924;-83
2023/06/10 02:13:02;;;;;;;;;;;16.20;99.90;;;;;;5094437;28;19931;-83
2023/06/10 02:15:28;;;;;;;;;;;16.20;99.90;;;;;;5090176;28;19925;-82
2023/06/10 02:17:54;;;;;;;;;;;16.10;99.90;;;;;;5098085;28;19935;-83
2023/06/10 02:20:20;;;;;;;;;;;16.00;99.90;;;;;;5091124;28;20377;-83
2023/06/10 02:22:46;;;;;;;;;;;15.90;99.90;;;;;;5089637;28;20419;-83
2023/06/10 02:25:11;;;;;;;;;;;15.80;99.90;;;;;;5088619;28;19928;-83
2023/06/10 02:27:37;;;;;;;;;;;15.70;99.90;;;;;;5093557;28;20080;-83
2023/06/10 02:30:03;;;;;;;;;;;15.60;99.90;;;;;;5096014;28;19931;-83
2023/06/10 02:32:28;;;;;;;;;;;15.60;99.90;;;;;;5092676;28;20633;-83
2023/06/10 02:34:54;;;;;;;;;;;15.50;99.90;;;;;;5093739;28;19924;-83
2023/06/10 02:37:20;;;;;;;;;;;15.50;99.90;;;;;;5092969;28;20085;-83
2023/06/10 02:39:45;;;;;;;;;;;15.40;99.90;;;;;;5075782;28;20044;-83
2023/06/10 02:42:11;;;;;;;;;;;15.30;99.90;;;;;;5087073;28;20649;-83
2023/06/10 02:44:37;;;;;;;;;;;15.40;99.90;;;;;;5094030;28;19924;-82
2023/06/10 02:47:03;;;;;;;;;;;15.30;99.90;;;;;;5096634;28;20017;-83
2023/06/10 02:49:28;;;;;;;;;;;15.10;99.90;;;;;;5089292;28;19928;-84
2023/06/10 02:51:54;;;;;;;;;;;15.30;99.90;;;;;;5089916;28;19935;-83
2023/06/10 02:54:20;;;;;;;;;;;15.20;99.90;;;;;;5093531;28;19935;-83
2023/06/10 02:56:47;;;;;;;;;;;15.10;99.90;;;;;;5095901;28;19939;-83
2023/06/10 02:59:13;;;;;;;;;;;15.10;99.90;;;;;;5071958;28;20014;-83
2023/06/10 03:01:39;;;;;;;;;;;15.10;99.90;;;;;;5077830;28;20090;-83
2023/06/10 03:04:05;;;;;;;;;;;15.00;99.90;;;;;;5085523;28;19934;-83
2023/06/10 03:06:33;;;;;;;;;;;15.10;99.90;;;;;;5092259;28;19932;-83
2023/06/10 03:09:07;;;;;;;;;;;15.00;99.90;;;;;;5086046;28;20018;-83
2023/06/10 03:11:33;;;;;;;;;;;15.00;99.90;;;;;;5090418;28;19928;-83
2023/06/10 03:13:58;;;;;;;;;;;14.90;99.90;;;;;;5090532;28;19931;-83
2023/06/10 03:16:25;;;;;;;;;;;14.90;99.90;;;;;;5086663;28;19939;-83
2023/06/10 03:18:50;;;;;;;;;;;15.10;99.90;;;;;;5095421;28;19928;-83
2023/06/10 03:21:16;;;;;;;;;;;15.10;99.90;;;;;;5092800;28;20503;-84
2023/06/10 03:23:41;;;;;;;;;;;15.00;99.90;;;;;;5087576;28;20331;-83
2023/06/10 03:26:07;;;;;;;;;;;15.00;99.90;;;;;;5097526;28;19935;-83
2023/06/10 03:28:33;;;;;;;;;;;15.00;99.90;;;;;;5088424;28;19928;-83
2023/06/10 03:30:58;;;;;;;;;;;15.00;99.90;;;;;;5090461;28;19928;-83
2023/06/10 03:33:24;;;;;;;;;;;15.00;99.90;;;;;;5096170;28;19924;-83
2023/06/10 03:35:50;;;;;;;;;;;15.00;99.90;;;;;;5088836;28;19932;-84
2023/06/10 03:38:16;;;;;;;;;;;15.00;99.90;;;;;;5090334;28;19966;-84
2023/06/10 03:40:42;;;;;;;;;;;15.00;99.90;;;;;;5067060;28;19935;-83
2023/06/10 03:43:07;;;;;;;;;;;15.00;99.90;;;;;;5089368;28;20373;-83
2023/06/10 03:45:33;;;;;;;;;;;15.00;99.90;;;;;;5091494;28;20350;-84
2023/06/10 03:47:58;;;;;;;;;;;15.00;99.90;;;;;;5083881;28;20416;-83
2023/06/10 03:50:24;;;;;;;;;;;15.00;99.90;;;;;;5091323;28;19932;-83
2023/06/10 03:52:50;;;;;;;;;;;15.00;99.90;;;;;;5087235;28;20317;-84
2023/06/10 03:55:16;;;;;;;;;;;15.00;99.90;;;;;;5094610;28;19989;-83
2023/06/10 03:57:42;;;;;;;;;;;15.10;99.90;;;;;;5091789;28;19943;-83
2023/06/10 04:00:13;;;;;;;;;;;15.10;99.90;;;;;;5084253;28;19927;-83
2023/06/10 04:02:45;;;;;;;;;;;15.10;99.90;;;;;;5094990;28;19977;-84
2023/06/10 04:05:11;;;;;;;;;;;15.10;99.90;;;;;;5072238;28;20043;-83
2023/06/10 04:07:39;;;;;;;;;;;15.10;99.90;;;;;;5075146;28;19928;-83
2023/06/10 04:10:05;;;;;;;;;;;15.10;99.90;;;;;;5090428;28;20641;-84
2023/06/10 04:12:30;;;;;;;;;;;15.10;99.90;;;;;;5087680;28;19924;-83
2023/06/10 04:14:56;;;;;;;;;;;15.10;99.90;;;;;;5091871;28;19980;-83
2023/06/10 04:17:21;;;;;;;;;;;15.10;99.90;;;;;;5084387;28;19928;-82
2023/06/10 04:19:47;;;;;;;;;;;15.20;99.90;;;;;;5092683;28;19928;-84
2023/06/10 04:22:13;;;;;;;;;;;15.20;99.90;;;;;;5087565;28;20018;-83
2023/06/10 04:24:38;;;;;;;;;;;15.20;99.90;;;;;;5083712;28;20352;-84
2023/06/10 04:27:04;;;;;;;;;;;15.20;99.90;;;;;;5092102;28;19938;-82
2023/06/10 04:29:30;;;;;;;;;;;15.20;99.90;;;;;;5083851;28;19982;-84
2023/06/10 04:31:56;;;;;;;;;;;15.20;99.90;;;;;;5092233;28;19932;-83
2023/06/10 04:34:21;;;;;;;;;;;15.30;99.90;;;;;;5078390;28;19934;-84
2023/06/10 04:36:47;;;;;;;;;;;15.30;99.90;;;;;;5090757;28;20031;-85
2023/06/10 04:39:13;;;;;;;;;;;15.40;99.90;;;;;;5097983;28;20452;-83
2023/06/10 04:41:38;;;;;;;;;;;15.90;99.90;;;;;;5092976;28;19932;-84
2023/06/10 04:44:04;;;;;;;;;;;17.20;99.90;;;;;;5091228;28;20056;-84
2023/06/10 04:46:31;;;;;;;;;;;19.10;99.90;;;;;;5091456;28;19932;-83
2023/06/10 04:48:57;;;;;;;;;;;20.00;99.90;;;;;;5091056;28;20014;-83
2023/06/10 04:51:22;;;;;;;;;;;20.60;99.90;;;;;;5094738;28;20022;-83
2023/06/10 04:53:48;;;;;;;;;;;21.70;99.90;;;;;;5096147;28;20011;-83
2023/06/10 04:56:15;;;;;;;;;;;22.70;99.90;;;;;;5090323;28;19936;-83
2023/06/10 04:58:40;;;;;;;;;;;23.50;99.90;;;;;;5095079;28;19923;-83
2023/06/10 05:01:06;;;;;;;;;;;23.70;99.90;;;;;;5088270;28;19924;-82
2023/06/10 05:03:31;;;;;;;;;;;24.20;99.90;;;;;;5093728;28;20019;-84
2023/06/10 05:05:57;;;;;;;;;;;22.40;99.90;;;;;;5092480;28;19956;-84
2023/06/10 05:08:22;;;;;;;;;;;23.40;99.90;;;;;;5069589;28;20022;-85
2023/06/10 05:10:48;;;;;;;;;;;22.70;99.90;;;;;;5097886;28;20300;-84
2023/06/10 05:13:13;;;;;;;;;;;23.60;99.90;;;;;;5088099;28;19932;-84
2023/06/10 05:15:40;;;;;;;;;;;24.90;99.90;;;;;;5091940;28;20096;-84
2023/06/10 05:18:05;;;;;;;;;;;22.90;99.90;;;;;;5087541;28;19928;-84
2023/06/10 05:20:31;;;;;;;;;;;24.60;99.90;;;;;;5089330;28;19932;-84
2023/06/10 05:22:56;;;;;;;;;;;25.10;99.90;;;;;;5089648;28;20023;-83
2023/06/10 05:25:22;;;;;;;;;;;24.40;99.90;;;;;;5092577;28;20040;-83
2023/06/10 05:27:47;;;;;;;;;;;24.60;99.90;;;;;;5089664;28;20528;-86
2023/06/10 05:30:13;;;;;;;;;;;25.20;99.90;;;;;;5090931;28;20612;-86
2023/06/10 05:32:39;;;;;;;;;;;25.10;99.90;;;;;;5087584;28;20413;-84
2023/06/10 05:35:06;;;;;;;;;;;24.30;99.90;;;;;;5092055;28;19984;-84
2023/06/10 05:37:33;;;;;;;;;;;25.10;99.90;;;;;;5090773;28;19935;-84
2023/06/10 05:39:58;;;;;;;;;;;24.20;99.90;;;;;;5089788;28;20399;-85
2023/06/10 05:42:24;;;;;;;;;;;23.10;99.90;;;;;;5090422;28;19924;-83
2023/06/10 05:44:49;;;;;;;;;;;23.80;99.90;;;;;;5093243;28;19927;-83
2023/06/10 05:47:15;;;;;;;;;;;23.00;99.90;;;;;;5095986;28;19924;-84
2023/06/10 05:49:40;;;;;;;;;;;21.60;99.90;;;;;;5086976;28;19934;-84
2023/06/10 05:52:06;;;;;;;;;;;21.70;99.90;;;;;;5087809;28;19931;-84
2023/06/10 05:54:32;;;;;;;;;;;21.20;99.90;;;;;;5093662;28;19928;-84
2023/06/10 05:56:57;;;;;;;;;;;21.10;99.90;;;;;;5073103;28;20381;-86
2023/06/10 05:59:23;;;;;;;;;;;20.90;99.90;;;;;;5092460;28;19962;-85
2023/06/10 06:01:49;;;;;;;;;;;21.20;99.90;;;;;;5086646;28;20434;-85
2023/06/10 06:04:16;;;;;;;;;;;21.00;99.90;;;;;;5088308;28;19928;-84
2023/06/10 06:06:41;;;;;;;;;;;21.40;99.90;;;;;;5093667;28;19955;-83
2023/06/10 06:09:07;;;;;;;;;;;21.40;99.90;;;;;;5092288;28;20385;-84
2023/06/10 06:11:33;;;;;;;;;;;20.00;99.90;;;;;;5087998;28;19932;-84
2023/06/10 06:13:59;;;;;;;;;;;20.20;99.90;;;;;;5096313;28;20558;-83
2023/06/10 06:16:25;;;;;;;;;;;20.70;99.90;;;;;;5085027;28;20435;-84
2023/06/10 06:18:53;;;;;;;;;;;20.20;99.90;;;;;;5094501;28;20054;-86
2023/06/10 06:21:19;;;;;;;;;;;21.30;99.90;;;;;;5089395;28;19931;-81
2023/06/10 06:23:44;;;;;;;;;;;20.60;99.90;;;;;;5079895;28;19935;-84
2023/06/10 06:26:10;;;;;;;;;;;21.20;99.90;;;;;;5091438;28;19931;-86
2023/06/10 06:28:35;;;;;;;;;;;21.70;99.90;;;;;;5087862;28;20283;-84
2023/06/10 06:31:01;;;;;;;;;;;21.50;99.90;;;;;;5092208;28;20038;-85
2023/06/10 06:33:27;;;;;;;;;;;21.40;99.90;;;;;;5089441;28;20060;-84
2023/06/10 06:35:52;;;;;;;;;;;21.30;99.90;;;;;;5092098;28;19932;-83
2023/06/10 06:38:18;;;;;;;;;;;21.00;99.90;;;;;;5096083;28;20397;-86
2023/06/10 06:40:43;;;;;;;;;;;21.80;99.90;;;;;;5083777;28;19994;-85
2023/06/10 06:43:09;;;;;;;;;;;21.70;99.90;;;;;;5094400;28;19969;-87
2023/06/10 06:45:34;;;;;;;;;;;21.10;99.90;;;;;;5090387;28;19927;-84
2023/06/10 06:48:00;;;;;;;;;;;21.50;99.90;;;;;;5089803;28;20048;-84
2023/06/10 06:50:25;;;;;;;;;;;21.70;99.90;;;;;;5097874;28;20006;-85
2023/06/10 06:52:51;;;;;;;;;;;21.40;99.90;;;;;;5088023;28;20152;-86
2023/06/10 06:55:17;;;;;;;;;;;21.60;99.90;;;;;;5095406;28;20029;-85
2023/06/10 06:57:42;;;;;;;;;;;21.90;99.90;;;;;;5068731;28;19992;-86
2023/06/10 07:00:08;;;;;;;;;;;21.90;99.90;;;;;;5091213;28;20014;-85
2023/06/10 07:02:35;;;;;;;;;;;22.40;99.90;;;;;;5072432;28;20735;-85
2023/06/10 07:05:02;;;;;;;;;;;22.40;99.90;;;;;;5086659;28;19930;-84
2023/06/10 07:07:27;;;;;;;;;;;22.70;99.90;;;;;;5075552;28;19928;-85
2023/06/10 07:09:53;;;;;;;;;;;22.60;99.90;;;;;;5090210;28;19939;-85
2023/06/10 07:12:18;;;;;;;;;;;23.00;99.90;;;;;;5086254;28;19924;-86
2023/06/10 07:14:44;;;;;;;;;;;22.70;99.90;;;;;;5092381;28;20377;-84
2023/06/10 07:17:10;;;;;;;;;;;23.00;99.90;;;;;;5075059;28;19928;-84
2023/06/10 07:19:35;;;;;;;;;;;23.40;99.90;;;;;;5079528;28;19977;-85
2023/06/10 07:22:01;;;;;;;;;;;23.80;99.90;;;;;;5088545;28;19982;-85
2023/06/10 07:24:26;;;;;;;;;;;22.50;99.90;;;;;;5083352;28;19927;-85
2023/06/10 07:26:52;;;;;;;;;;;23.00;99.90;;;;;;5083799;28;19924;-86
2023/06/10 07:29:17;;;;;;;;;;;22.40;99.90;;;;;;5092133;28;19932;-86
2023/06/10 07:31:43;;;;;;;;;;;22.90;99.90;;;;;;5061386;28;20638;-84
2023/06/10 07:34:08;;;;;;;;;;;22.90;99.90;;;;;;5092952;28;20312;-86
2023/06/10 07:36:34;;;;;;;;;;;23.10;99.90;;;;;;5083968;28;20826;-85
2023/06/10 07:39:00;;;;;;;;;;;23.20;99.90;;;;;;5087478;28;20266;-85
2023/06/10 07:41:25;;;;;;;;;;;23.10;99.90;;;;;;5084778;28;19932;-85
2023/06/10 07:43:54;;;;;;;;;;;23.20;99.90;;;;;;5090208;28;19935;-84
2023/06/10 07:46:21;;;;;;;;;;;22.80;99.90;;;;;;5087107;28;20348;-86
2023/06/10 07:48:46;;;;;;;;;;;24.10;99.90;;;;;;5081601;28;19936;-84
2023/06/10 07:51:12;;;;;;;;;;;23.80;99.90;;;;;;5094301;28;20566;-86
2023/06/10 07:53:38;;;;;;;;;;;24.10;99.90;;;;;;5087219;28;20030;-86
2023/06/10 07:56:03;;;;;;;;;;;24.30;99.90;;;;;;5088364;28;19927;-86
2023/06/10 07:58:29;;;;;;;;;;;24.00;99.90;;;;;;5086124;28;19927;-85
2023/06/10 08:00:54;;;;;;;;;;;23.70;99.90;;;;;;5091282;28;19939;-85
2023/06/10 08:03:20;;;;;;;;;;;23.90;99.90;;;;;;5079720;28;19928;-84
2023/06/10 08:05:45;;;;;;;;;;;24.00;99.90;;;;;;5084068;28;19928;-85
2023/06/10 08:08:11;;;;;;;;;;;23.40;99.90;;;;;;5082526;28;19928;-84
2023/06/10 08:10:40;;;;;;;;;;;23.80;99.90;;;;;;5083541;28;19932;-85
2023/06/10 08:13:07;;;;;;;;;;;24.60;99.90;;;;;;5092181;28;19935;-88
2023/06/10 08:15:33;;;;;;;;;;;24.30;99.90;;;;;;5092041;28;19924;-88
2023/06/10 08:17:59;;;;;;;;;;;24.40;99.90;;;;;;5093721;28;19927;-85
2023/06/10 08:20:24;;;;;;;;;;;24.20;99.90;;;;;;5097022;28;19924;-86
2023/06/10 08:22:50;;;;;;;;;;;24.20;99.90;;;;;;5093622;28;19935;-86
2023/06/10 08:25:15;;;;;;;;;;;24.60;99.90;;;;;;5098230;28;19927;-85
2023/06/10 08:27:41;;;;;;;;;;;24.40;99.90;;;;;;5094386;28;19927;-87
2023/06/10 08:30:07;;;;;;;;;;;24.90;99.90;;;;;;5100299;28;19955;-88
2023/06/10 08:32:33;;;;;;;;;;;24.70;99.90;;;;;;5097213;28;20369;-86
2023/06/10 08:34:58;;;;;;;;;;;25.10;99.90;;;;;;5074144;28;19938;-85
2023/06/10 08:37:24;;;;;;;;;;;24.80;99.90;;;;;;5096600;28;19950;-84
2023/06/10 08:39:50;;;;;;;;;;;24.90;99.90;;;;;;5097088;28;20481;-87
2023/06/10 08:42:21;;;;;;;;;;;25.50;99.90;;;;;;5093436;28;20019;-87
2023/06/10 08:44:48;;;;;;;;;;;24.90;99.90;;;;;;5096493;28;19967;-89
2023/06/10 08:47:15;;;;;;;;;;;25.00;99.90;;;;;;5096090;28;19935;-87
2023/06/10 08:49:43;;;;;;;;;;;25.20;99.90;;;;;;5096982;28;19988;-85
2023/06/10 08:52:11;;;;;;;;;;;25.30;99.90;;;;;;5097907;28;19959;-85
2023/06/10 08:54:38;;;;;;;;;;;25.40;99.90;;;;;;5098357;28;19966;-86
2023/06/10 08:57:06;;;;;;;;;;;25.80;99.90;;;;;;5079169;28;19932;-86
2023/06/10 08:59:31;;;;;;;;;;;26.00;99.90;;;;;;5090642;28;19939;-85
2023/06/10 09:01:58;;;;;;;;;;;26.00;99.90;;;;;;5092023;28;19932;-86
2023/06/10 09:04:26;;;;;;;;;;;26.20;99.90;;;;;;5092087;28;20265;-86
2023/06/10 09:06:52;;;;;;;;;;;26.10;99.90;;;;;;5084856;28;19927;-85
2023/06/10 09:09:20;;;;;;;;;;;26.10;99.90;;;;;;5094158;28;19928;-85
2023/06/10 09:11:45;;;;;;;;;;;26.50;99.90;;;;;;5091090;28;20442;-87
2023/06/10 09:14:12;;;;;;;;;;;26.60;99.90;;;;;;5080611;28;19931;-85
2023/06/10 09:16:41;;;;;;;;;;;26.30;99.90;;;;;;5075251;28;19927;-87
2023/06/10 09:19:10;;;;;;;;;;;26.40;99.90;;;;;;5072502;28;20266;-86
2023/06/10 09:21:35;;;;;;;;;;;26.60;99.90;;;;;;5091106;28;19935;-88
2023/06/10 09:24:01;;;;;;;;;;;26.40;99.90;;;;;;5073351;28;20007;-86
2023/06/10 09:26:28;;;;;;;;;;;26.50;99.70;;;;;;5078070;28;19928;-86
2023/06/10 09:28:57;;;;;;;;;;;26.20;97.80;;;;;;5073297;28;19932;-86
2023/06/10 09:31:23;;;;;;;;;;;25.80;96.10;;;;;;5091770;28;20015;-86
2023/06/10 09:33:48;;;;;;;;;;;26.90;99.30;;;;;;5091432;28;20014;-87
2023/06/10 09:36:23;;;;;;;;;;;26.60;97.20;;;;;;5090745;28;19927;-88
2023/06/10 09:38:50;;;;;;;;;;;26.00;98.30;;;;;;5079068;28;19939;-88
2023/06/10 09:41:16;;;;;;;;;;;26.50;97.00;;;;;;5066344;28;19928;-85
2023/06/10 09:43:46;;;;;;;;;;;26.30;94.70;;;;;;5068642;28;19943;-87
2023/06/10 09:46:18;;;;;;;;;;;26.50;95.60;;;;;;5078297;28;19955;-86
2023/06/10 09:48:44;;;;;;;;;;;27.40;96.40;;;;;;5093617;28;19924;-86
2023/06/10 09:51:10;;;;;;;;;;;26.10;91.00;;;;;;5101056;28;20308;-86
2023/06/10 09:53:36;;;;;;;;;;;26.20;93.50;;;;;;5090755;28;19938;-85
2023/06/10 09:56:05;;;;;;;;;;;26.80;93.90;;;;;;5095558;28;19928;-86
2023/06/10 09:58:43;;;;;;;;;;;26.30;90.40;;;;;;5093440;28;20050;-87
2023/06/10 10:01:09;;;;;;;;;;;26.30;92.20;;;;;;5091716;28;19933;-87
2023/06/10 10:03:46;;;;;;;;;;;26.80;93.70;;;;;;5092802;28;20372;-88
2023/06/10 10:06:12;;;;;;;;;;;26.80;93.60;;;;;;5072628;28;19974;-86
2023/06/10 10:08:37;;;;;;;;;;;26.00;92.00;;;;;;5089089;28;19929;-87
2023/06/10 10:11:03;;;;;;;;;;;26.90;92.70;;;;;;5081599;28;20705;-87
2023/06/10 10:13:30;;;;;;;;;;;27.20;92.60;;;;;;5058638;28;19936;-85
2023/06/10 10:15:59;;;;;;;;;;;27.30;91.80;;;;;;5083031;28;19958;-86
2023/06/10 10:18:30;;;;;;;;;;;27.50;92.90;;;;;;5059256;28;19939;-86
2023/06/10 10:20:57;;;;;;;;;;;27.90;93.70;;;;;;5084677;28;19993;-84
2023/06/10 10:23:29;;;;;;;;;;;27.30;92.90;;;;;;5085563;28;21484;-88
2023/06/10 10:25:57;;;;;;;;;;;27.40;93.60;;;;;;5082106;28;19928;-86
2023/06/10 10:28:26;;;;;;;;;;;27.50;93.00;;;;;;5091744;28;19928;-86
2023/06/10 10:30:54;;;;;;;;;;;28.60;94.90;;;;;;5068078;28;19943;-86
2023/06/10 10:33:25;;;;;;;;;;;28.60;93.60;;;;;;5083259;28;19947;-87
2023/06/10 10:35:50;;;;;;;;;;;28.80;93.30;;;;;;5069511;28;19932;-87
2023/06/10 10:38:16;;;;;;;;;;;27.90;90.40;;;;;;5092589;28;20285;-85
2023/06/10 10:40:43;;;;;;;;;;;28.60;92.50;;;;;;5087209;28;19932;-85
2023/06/10 10:43:10;;;;;;;;;;;28.00;92.40;;;;;;5094060;28;19924;-88
2023/06/10 10:45:35;;;;;;;;;;;28.40;91.10;;;;;;5096215;28;20532;-86
2023/06/10 10:48:11;;;;;;;;;;;28.80;92.80;;;;;;5095823;28;19927;-88
2023/06/10 10:50:37;;;;;;;;;;;28.90;91.80;;;;;;5093068;28;20312;-87
2023/06/10 10:53:03;;;;;;;;;;;29.10;89.50;;;;;;5071752;28;19928;-89
2023/06/10 10:55:32;;;;;;;;;;;28.20;90.20;;;;;;5094043;28;19980;-86
2023/06/10 10:57:57;;;;;;;;;;;28.90;92.50;;;;;;5087857;28;19947;-87
2023/06/10 11:00:26;;;;;;;;;;;29.20;90.50;;;;;;5092096;28;19935;-84
2023/06/10 11:02:53;;;;;;;;;;;29.60;91.40;;;;;;5089172;28;20021;-86
2023/06/10 11:05:30;;;;;;;;;;;29.50;90.90;;;;;;5096749;28;19928;-86
2023/06/10 11:07:56;;;;;;;;;;;29.20;86.10;;;;;;5091677;28;19932;-86
2023/06/10 11:10:37;;;;;;;;;;;28.90;87.40;;;;;;5080823;28;20800;-85
2023/06/10 11:13:07;;;;;;;;;;;29.50;86.20;;;;;;5096690;28;21451;-85
2023/06/10 11:15:37;;;;;;;;;;;29.40;84.70;;;;;;5090385;28;20445;-84
2023/06/10 11:18:09;;;;;;;;;;;30.20;87.70;;;;;;5093694;28;20337;-85
2023/06/10 11:21:04;;;;;;;;;;;30.40;86.50;;;;;;5090914;28;19938;-86
2023/06/10 11:23:40;;;;;;;;;;;30.20;82.70;;;;;;5067050;28;19923;-87
2023/06/10 11:26:15;;;;;;;;;;;29.90;82.60;;;;;;5073287;28;19927;-85
2023/06/10 11:28:47;;;;;;;;;;;30.60;84.50;;;;;;5092841;28;19924;-85
2023/06/10 11:31:23;;;;;;;;;;;30.60;83.60;;;;;;5092949;28;20495;-88
2023/06/10 11:33:52;;;;;;;;;;;29.40;79.50;;;;;;5095227;28;19931;-86
2023/06/10 11:36:17;;;;;;;;;;;30.00;84.20;;;;;;5095237;28;19931;-86
2023/06/10 11:38:43;;;;;;;;;;;29.90;81.10;;;;;;5077386;28;19935;-84
2023/06/10 11:41:10;;;;;;;;;;;30.20;82.90;;;;;;5091707;28;19934;-84
2023/06/10 11:43:36;;;;;;;;;;;29.60;78.00;;;;;;5099898;28;19934;-85
2023/06/10 11:46:01;;;;;;;;;;;29.20;73.30;;;;;;5096538;28;19928;-82
2023/06/10 11:48:30;;;;;;;;;;;30.10;81.30;;;;;;5100762;28;19927;-84
2023/06/10 11:50:55;;;;;;;;;;;29.70;77.90;;;;;;5097082;28;20411;-87
2023/06/10 11:53:21;;;;;;;;;;;30.10;79.80;;;;;;5082738;28;19928;-84
2023/06/10 11:55:47;;;;;;;;;;;30.50;80.00;;;;;;5099847;28;19939;-85
2023/06/10 11:58:27;;;;;;;;;;;29.80;75.80;;;;;;5094263;28;20377;-86
2023/06/10 12:01:01;;;;;;;;;;;29.00;72.30;;;;;;5099600;28;19932;-87
2023/06/10 12:03:27;;;;;;;;;;;29.10;75.50;;;;;;5082100;28;19923;-85
2023/06/10 12:05:54;;;;;;;;;;;28.50;72.50;;;;;;5099329;28;20591;-82
2023/06/10 12:08:23;;;;;;;;;;;28.60;73.50;;;;;;5101593;28;20590;-84
2023/06/10 12:10:48;;;;;;;;;;;29.50;77.50;;;;;;5091361;28;19974;-85
2023/06/10 12:13:14;;;;;;;;;;;29.30;75.10;;;;;;5100799;28;19959;-84
2023/06/10 12:15:40;;;;;;;;;;;28.80;68.90;;;;;;5097318;28;19923;-84
2023/06/10 12:18:06;;;;;;;;;;;30.30;72.60;;;;;;5079434;28;19923;-86
2023/06/10 12:20:35;;;;;;;;;;;30.20;73.20;;;;;;5103530;28;19928;-84
2023/06/10 12:23:08;;;;;;;;;;;29.70;73.00;;;;;;5099359;28;19975;-83
2023/06/10 12:25:33;;;;;;;;;;;30.40;73.00;;;;;;5099465;28;19923;-83
2023/06/10 12:27:59;;;;;;;;;;;30.10;67.10;;;;;;5083151;28;19928;-84
2023/06/10 12:30:26;;;;;;;;;;;30.60;72.00;;;;;;5096628;28;19932;-84
2023/06/10 12:32:52;;;;;;;;;;;29.60;66.00;;;;;;5097229;28;19978;-86
2023/06/10 12:35:19;;;;;;;;;;;29.50;72.50;;;;;;5079793;28;19943;-84
2023/06/10 12:38:14;;;;;;;;;;;30.30;71.90;;;;;;5101996;28;19927;-84
2023/06/10 12:40:40;;;;;;;;;;;30.70;65.50;;;;;;5084122;28;19925;-83
2023/06/10 12:43:06;;;;;;;;;;;30.90;70.20;;;;;;5081431;28;19975;-87
2023/06/10 12:45:33;;;;;;;;;;;30.80;70.00;;;;;;5084571;28;20564;-85
2023/06/10 12:48:06;;;;;;;;;;;30.70;67.40;;;;;;5094980;28;19964;-85
2023/06/10 12:50:32;;;;;;;;;;;30.50;72.50;;;;;;5100616;28;19927;-84
2023/06/10 12:52:58;;;;;;;;;;;30.40;67.30;;;;;;5097842;28;19939;-86
2023/06/10 12:55:24;;;;;;;;;;;31.20;71.60;;;;;;5103864;28;19972;-85
2023/06/10 12:57:50;;;;;;;;;;;30.60;65.10;;;;;;5099988;28;19931;-84
2023/06/10 13:00:19;;;;;;;;;;;30.80;70.20;;;;;;5098995;28;19935;-90
2023/06/10 13:02:45;;;;;;;;;;;30.80;66.70;;;;;;5094219;28;19935;-87
2023/06/10 13:05:10;;;;;;;;;;;31.00;66.50;;;;;;5103227;28;20417;-84
2023/06/10 13:07:36;;;;;;;;;;;30.90;65.40;;;;;;5078517;28;19928;-87
2023/06/10 13:10:01;;;;;;;;;;;31.00;62.60;;;;;;5091285;28;20015;-89
2023/06/10 13:12:30;;;;;;;;;;;29.80;61.80;;;;;;5098446;28;19927;-84
2023/06/10 13:14:56;;;;;;;;;;;30.10;61.50;;;;;;5095840;28;19935;-84
2023/06/10 13:17:21;;;;;;;;;;;30.40;63.20;;;;;;5102240;28;19927;-86
2023/06/10 13:19:48;;;;;;;;;;;30.30;62.90;;;;;;5097041;28;19932;-85
2023/06/10 13:22:14;;;;;;;;;;;30.20;60.00;;;;;;5075699;28;19929;-83
2023/06/10 13:24:40;;;;;;;;;;;29.90;58.30;;;;;;5098960;28;19928;-84
2023/06/10 13:27:06;;;;;;;;;;;30.80;62.90;;;;;;5100251;28;20046;-85
2023/06/10 13:29:32;;;;;;;;;;;30.20;61.00;;;;;;5077273;28;20445;-86
2023/06/10 13:31:58;;;;;;;;;;;30.10;60.30;;;;;;5099929;28;19931;-85
2023/06/10 13:34:23;;;;;;;;;;;29.60;59.10;;;;;;5076727;28;19932;-90
2023/06/10 13:36:49;;;;;;;;;;;30.00;59.80;;;;;;5099068;28;20323;-89
2023/06/10 13:39:14;;;;;;;;;;;30.20;62.50;;;;;;5099790;28;19923;-85
2023/06/10 13:41:41;;;;;;;;;;;29.80;57.50;;;;;;5101985;28;19927;-86
2023/06/10 13:44:06;;;;;;;;;;;29.70;60.00;;;;;;5083867;28;20342;-83
2023/06/10 13:46:32;;;;;;;;;;;30.10;61.00;;;;;;5085431;28;19962;-84
2023/06/10 13:48:57;;;;;;;;;;;30.20;59.70;;;;;;5097596;28;19931;-85
2023/06/10 13:51:23;;;;;;;;;;;29.80;60.30;;;;;;5099492;28;19950;-83
2023/06/10 13:53:50;;;;;;;;;;;30.30;59.40;;;;;;5097084;28;20014;-85
2023/06/10 13:56:15;;;;;;;;;;;30.80;65.30;;;;;;5095837;28;19983;-86
2023/06/10 13:58:42;;;;;;;;;;;30.80;63.10;;;;;;5098540;28;20014;-83
2023/06/10 14:01:08;;;;;;;;;;;29.80;55.30;;;;;;5094050;28;20394;-85
2023/06/10 14:03:33;;;;;;;;;;;29.60;57.80;;;;;;5100118;28;19968;-83
2023/06/10 14:05:59;;;;;;;;;;;30.40;58.40;;;;;;5097496;28;19970;-85
2023/06/10 14:08:25;;;;;;;;;;;30.70;57.90;;;;;;5100213;28;19936;-84
2023/06/10 14:10:51;;;;;;;;;;;30.50;60.00;;;;;;5095420;28;19934;-85
2023/06/10 14:13:17;;;;;;;;;;;29.50;53.20;;;;;;5098820;28;19927;-83